Etusivu
METAR-TAF:

METAR-TAF

Lentoasemat :

Tripoli, Libya

Mitiga International Airport

Leveyspiiri: 32-54N, Pituuspiiri: 13-17E, korkeus merenpinnasta: 11 m

Tämänhetkinen sää

Tämä raportti tehtiin 38 minuuttia sitten, kello 07.55 UTC
Tuuli 6 kn idästä/koillisesta
Lämpötila 30°C
Kosteus 49%
Ilmanpaine 1014 hPa
Näkyvyys: 7000 m
selkeää

METAR: HLLM 210755Z 06006KT 7000 SKC 30/18 Q1014

Aika: 10:33 (08:33 UTC)

Sääennuste

Tämä raportti tehtiin 9 tuntia ja 33 minuuttia sitten, kello 23.00 UTC
Ennuste voimassa 21. päivästä klo 00 UTC - 21. päivään klo 24 UTC
Tuuli 17 kn idästä
Näkyvyys 10 km tai enemmän
ei pilviä alle 1500 m:ssä eikä cumulonimbus-pilviä

TAF: HLLM 202300Z 2100/2124 08017KT CAVOK

Säähavainnot ja -ennusteet yli 4000 lentoasemalta (METAR- ja TAF-raportit).

Käytössä olevat sääasemat on merkitty karttaan keltaisilla ja punaisilla pisteillä.

Aseta hiiri pisteen päälle nähdäksesi sääaseman nimen.

Klikkaa sitten nähdäksesi säähavainnot ja -ennusteet.

Kartan vaihtaminen: klikkaa mustalla rastilla varustettuja vihreitä pisteitä, niin voit zoomata sisään; viivalla varustettua vihreää pistettä, niin voit zoomata ulos tai vihreitä nuolia, niin pääset viereisille kartoille.


METAR-TAF: